Keiyo Maru No.8 — JD3763 — position and weather

sailwx.info

Track history (hours):
 
Tides and Currents Weather Stations Pressure Air Temp Water Temp Dewpoint Dewpoint Depression Visibility Wind Speed Wind Dir Waves Ship Positions

Keiyo Maru No.8

Last reported at 2018-Feb-23 15:30 UTC. Time now 2018-Feb-23 15:52 UTC.
Position N 33°56' E 130°54'.

Length 74 m; draft 4.5 m.

Type: Tanker. MMSI: 431005858.

Date/timePositionNaut miles runAvg speedWind from/ knotsBaromVisibWave heightAir tempDewpointWater temp
2018-Feb-23 15:30N 33°56' E 130°54'0 0.0
2018-Feb-23 15:00N 33°56' E 130°54'0 0.0
2018-Feb-23 14:30N 33°56' E 130°54'0 0.0
2018-Feb-23 14:00N 33°56' E 130°54'0 0.0
2018-Feb-23 13:30N 33°56' E 130°54'0 0.0
2018-Feb-23 13:00N 33°56' E 130°54'0 0.0
2018-Feb-23 12:27N 33°56' E 130°54'0 0.0
2018-Feb-23 12:00N 33°56' E 130°54'0 0.0
2018-Feb-23 11:27N 33°56' E 130°54'0 0.0
2018-Feb-23 11:00N 33°56' E 130°54'0 0.0
2018-Feb-23 10:30N 33°56' E 130°54'0 0.0
2018-Feb-23 10:00N 33°56' E 130°54'0 0.0
2018-Feb-23 09:30N 33°56' E 130°54'0 0.0
2018-Feb-23 08:57N 33°56' E 130°54'0 0.0
2018-Feb-23 08:27N 33°56' E 130°54'0 0.0
2018-Feb-23 08:00N 33°56' E 130°54'0 0.0
2018-Feb-23 07:22N 33°56' E 130°54'0 0.0
2018-Feb-23 07:00N 33°56' E 130°54'0 0.0
2018-Feb-23 06:30N 33°56' E 130°54'0 0.0
2018-Feb-23 05:55N 33°56' E 130°54'0 0.0
2018-Feb-23 05:30N 33°56' E 130°54'0 0.0
2018-Feb-23 05:00N 33°56' E 130°54'0 0.0
2018-Feb-23 04:30N 33°56' E 130°54'1 2.9
2018-Feb-23 04:01N 33°55' E 130°52'1 2.1
2018-Feb-23 03:30N 33°55' E 130°51'0 0.0
2018-Feb-23 03:00N 33°55' E 130°51'0 0.0
2018-Feb-23 02:30N 33°55' E 130°51'0 0.0
2018-Feb-23 02:00N 33°55' E 130°51'0 0.0
2018-Feb-23 01:30N 33°55' E 130°51'0 0.0
2018-Feb-23 01:00N 33°55' E 130°51'0 0.0
2018-Feb-23 00:30N 33°55' E 130°51'0 0.0
2018-Feb-23 00:01N 33°55' E 130°51'2 3.2
2018-Feb-22 23:30N 33°55' E 130°53'1 1.1
2018-Feb-22 23:00N 33°55' E 130°54'0 0.0
2018-Feb-22 22:31N 33°55' E 130°54'0 0.0
2018-Feb-22 22:00N 33°55' E 130°54'0 0.0
2018-Feb-22 21:30N 33°55' E 130°54'1 1.4
2018-Feb-22 21:00N 33°55' E 130°54'611.3
2018-Feb-22 20:30N 33°59' E 130°59'612.8
2018-Feb-22 20:00N 33°56' E 131°06'713.1
2018-Feb-22 19:30N 33°53' E 131°13'713.2
2018-Feb-22 19:00N 33°51' E 131°21'713.3
2018-Feb-22 18:30N 33°50' E 131°28'713.2
2018-Feb-22 18:00N 33°48' E 131°36'713.2
2018-Feb-22 17:30N 33°47' E 131°44'713.2
2018-Feb-22 16:59N 33°45' E 131°52'1613.1
2018-Feb-22 15:48N 33°43' E 132°10'413.0
2018-Feb-22 15:30N 33°44' E 132°15'712.9
2018-Feb-22 14:55N 33°46' E 132°23'1212.7
2018-Feb-22 14:00N 33°53' E 132°35'612.8
2018-Feb-22 13:30N 33°57' E 132°41'10512.2
2018-Feb-22 04:53N 34°44' E 134°35'410.3
2018-Feb-22 04:30N 34°47' E 134°38'0 0.0
2018-Feb-22 04:00N 34°47' E 134°38'0 0.0
2018-Feb-22 03:29N 34°47' E 134°38'0 0.0
2018-Feb-22 03:00N 34°47' E 134°38'0 0.0
2018-Feb-22 02:30N 34°47' E 134°38'2 3.6
2018-Feb-22 01:59N 34°45' E 134°38'0 0.3
2018-Feb-22 01:17N 34°45' E 134°38'0 0.0
2018-Feb-22 01:00N 34°45' E 134°38'2 3.2
2018-Feb-22 00:29N 34°43' E 134°38'612.9
2018-Feb-22 00:00N 34°37' E 134°37'611.3
2018-Feb-21 23:30N 34°32' E 134°38'510.5
2018-Feb-21 23:00N 34°26' E 134°38'510.6
2018-Feb-21 22:30N 34°21' E 134°38'710.7
2018-Feb-21 21:53N 34°14' E 134°39'512.5
2018-Feb-21 21:29N 34°10' E 134°42'613.0
2018-Feb-21 21:00N 34°05' E 134°46'713.3
2018-Feb-21 20:28N 33°59' E 134°51'613.2
2018-Feb-21 20:00N 33°54' E 134°56'713.1
2018-Feb-21 19:30N 33°50' E 135°01'8310.6
2018-Feb-21 11:41N 34°04' E 136°40'814.4
2018-Feb-21 11:09N 34°09' E 136°47'3310.7
2018-Feb-21 08:03N 34°42' E 136°49'213.2
2018-Feb-21 07:56N 34°43' E 136°48'613.1
2018-Feb-21 07:30N 34°48' E 136°45'713.4
2018-Feb-21 07:01N 34°55' E 136°46'613.0
2018-Feb-21 06:31N 35°01' E 136°50'2 3.7
2018-Feb-21 06:00N 35°02' E 136°52'0 0.0
2018-Feb-21 05:30N 35°02' E 136°52'0 0.0
2018-Feb-21 05:00N 35°02' E 136°52'0 0.0
2018-Feb-21 04:30N 35°02' E 136°52'0 0.0
2018-Feb-21 04:00N 35°02' E 136°52'0 0.0
2018-Feb-21 03:30N 35°02' E 136°52'0 0.0
2018-Feb-21 03:00N 35°02' E 136°52'0 0.0
2018-Feb-21 02:30N 35°02' E 136°52'0 0.0
2018-Feb-21 02:00N 35°02' E 136°52'0 0.0
2018-Feb-21 01:30N 35°02' E 136°52'0 0.0
2018-Feb-21 01:00N 35°02' E 136°52'0 0.0
2018-Feb-21 00:30N 35°02' E 136°52'2 3.1
2018-Feb-21 00:00N 35°03' E 136°52'1 2.1
2018-Feb-20 23:30N 35°04' E 136°52'0 0.0
2018-Feb-20 22:55N 35°04' E 136°52'0 0.0
2018-Feb-20 22:25N 35°04' E 136°52'0 0.0
2018-Feb-20 21:55N 35°04' E 136°52'0 0.0
2018-Feb-20 21:28N 35°04' E 136°52'0 0.0
2018-Feb-20 20:58N 35°04' E 136°52'0 0.0
2018-Feb-20 20:28N 35°04' E 136°52'0 0.0
2018-Feb-20 19:58N 35°04' E 136°52'0 0.0
2018-Feb-20 19:28N 35°04' E 136°52'0 0.0
2018-Feb-20 18:58N 35°04' E 136°52'0 0.0
2018-Feb-20 18:28N 35°04' E 136°52'0 0.0
2018-Feb-20 17:58N 35°04' E 136°52'0 0.0
2018-Feb-20 17:28N 35°04' E 136°52'0 0.0
2018-Feb-20 16:58N 35°04' E 136°52'0 0.0
2018-Feb-20 16:25N 35°04' E 136°52'0 0.0
2018-Feb-20 15:58N 35°04' E 136°52'0 0.0
2018-Feb-20 15:28N 35°04' E 136°52'0 0.0
2018-Feb-20 14:58N 35°04' E 136°52'0 0.0
2018-Feb-20 14:25N 35°04' E 136°52'0 0.0
2018-Feb-20 13:58N 35°04' E 136°52'0 0.0
2018-Feb-20 13:25N 35°04' E 136°52'0 0.0
2018-Feb-20 12:58N 35°04' E 136°52'0 0.0
2018-Feb-20 12:28N 35°04' E 136°52'0 0.0
2018-Feb-20 11:58N 35°04' E 136°52'0 0.0
2018-Feb-20 11:28N 35°04' E 136°52'0 0.0
2018-Feb-20 10:58N 35°04' E 136°52'0 0.0
2018-Feb-20 10:28N 35°04' E 136°52'0 0.0
2018-Feb-20 09:58N 35°04' E 136°52'0 0.0
2018-Feb-20 09:28N 35°04' E 136°52'0 0.0
2018-Feb-20 08:58N 35°04' E 136°52'0 0.0
2018-Feb-20 08:25N 35°04' E 136°52'0 0.0
2018-Feb-20 07:58N 35°04' E 136°52'0 0.0
2018-Feb-20 07:22N 35°04' E 136°52'0 0.3
2018-Feb-20 07:00N 35°04' E 136°52'5 9.2
2018-Feb-20 06:30N 35°00' E 136°50'713.1
2018-Feb-20 06:00N 34°54' E 136°47'713.3
2018-Feb-20 05:30N 34°47' E 136°48'713.1
2018-Feb-20 04:56N 34°42' E 136°54'613.3
2018-Feb-20 04:29N 34°39' E 137°00'714.4
2018-Feb-20 04:00N 34°42' E 137°08'612.5
2018-Feb-20 03:29N 34°42' E 137°16'4 0.4
2018-Feb-19 16:51N 34°42' E 137°11'11910.3
2018-Feb-19 05:20N 33°50' E 135°02'514.1
2018-Feb-19 04:58N 33°53' E 134°58'1114.2
2018-Feb-19 04:11N 34°02' E 134°49'314.1
2018-Feb-19 03:58N 34°04' E 134°47'914.5
2018-Feb-19 03:19N 34°12' E 134°40'514.7
2018-Feb-19 02:57N 34°17' E 134°38'614.2
2018-Feb-19 02:30N 34°23' E 134°36'714.0
2018-Feb-19 01:59N 34°31' E 134°36'714.1
2018-Feb-19 01:30N 34°37' E 134°37'913.8
2018-Feb-19 00:52N 34°46' E 134°38'1 2.7
2018-Feb-19 00:27N 34°47' E 134°38'0 0.0
2018-Feb-19 00:00N 34°47' E 134°38'0 0.0
2018-Feb-18 23:30N 34°47' E 134°38'0 0.1
2018-Feb-18 23:00N 34°47' E 134°38'4 8.9
2018-Feb-18 22:30N 34°44' E 134°34'714.0
2018-Feb-18 22:00N 34°41' E 134°26'713.8
2018-Feb-18 21:29N 34°37' E 134°19'1214.3
2018-Feb-18 20:39N 34°32' E 134°06'314.6
2018-Feb-18 20:26N 34°31' E 134°03'5812.8
2018-Feb-18 15:55N 34°09' E 132°57'1213.4
2018-Feb-18 15:01N 34°01' E 132°47'114.6
2018-Feb-18 14:56N 34°00' E 132°46'715.2
2018-Feb-18 14:29N 33°56' E 132°40'915.0
2018-Feb-18 13:55N 33°50' E 132°32'2814.0
2018-Feb-18 11:54N 33°43' E 131°59'513.7
2018-Feb-18 11:30N 33°44' E 131°53'713.4
2018-Feb-18 11:00N 33°45' E 131°45'612.9
2018-Feb-18 10:30N 33°46' E 131°38'713.3
2018-Feb-18 10:00N 33°48' E 131°30'713.5
2018-Feb-18 09:30N 33°49' E 131°22'713.4
2018-Feb-18 09:00N 33°51' E 131°14'713.4
2018-Feb-18 08:30N 33°54' E 131°07'713.9
2018-Feb-18 08:00N 33°58' E 131°01'714.0
2018-Feb-18 07:31N 33°54' E 130°54'2 4.4
2018-Feb-18 07:00N 33°55' E 130°51'0 0.0
2018-Feb-18 06:28N 33°55' E 130°51'0 0.0
2018-Feb-18 06:01N 33°55' E 130°51'0 0.0
2018-Feb-18 05:30N 33°55' E 130°51'0 0.0
2018-Feb-18 05:00N 33°55' E 130°51'0 0.0
2018-Feb-18 04:30N 33°55' E 130°51'0 0.0
2018-Feb-18 04:00N 33°55' E 130°51'0 0.0
2018-Feb-18 03:30N 33°55' E 130°51'0 0.0
2018-Feb-18 03:01N 33°55' E 130°51'0 0.0
2018-Feb-18 02:29N 33°55' E 130°51'0 0.1
2018-Feb-18 01:59N 33°55' E 130°51'0 0.0
2018-Feb-18 01:29N 33°55' E 130°51'2 4.0
2018-Feb-18 01:00N 33°55' E 130°53'510.6
2018-Feb-18 00:30N 33°58' E 130°58'713.4
2018-Feb-18 00:00N 33°56' E 131°06'510.6
2018-Feb-17 23:30N 33°53' E 131°11'510.0
2018-Feb-17 23:00N 33°51' E 131°17'612.4
2018-Feb-17 22:30N 33°50' E 131°24'612.4
2018-Feb-17 22:00N 33°49' E 131°32'612.7
2018-Feb-17 21:30N 33°48' E 131°39'612.4
2018-Feb-17 21:00N 33°46' E 131°46'2012.0
2018-Feb-17 19:18N 33°43' E 132°11'412.5
2018-Feb-17 18:59N 33°44' E 132°15'712.9
2018-Feb-17 18:25N 33°46' E 132°24'613.2
2018-Feb-17 17:59N 33°49' E 132°30'713.4
2018-Feb-17 17:29N 33°53' E 132°36'714.1
2018-Feb-17 17:00N 33°57' E 132°42'7411.3
2018-Feb-17 10:29N 34°27' E 134°03'712.9
2018-Feb-17 09:57N 34°25' E 134°12'612.3
2018-Feb-17 09:25N 34°24' E 134°19'712.0
2018-Feb-17 08:52N 34°29' E 134°25'2010.5
2018-Feb-17 07:00N 34°46' E 134°37'1 1.8
2018-Feb-17 06:15N 34°47' E 134°38'0 0.0
2018-Feb-17 06:00N 34°47' E 134°38'0 0.0
2018-Feb-17 05:30N 34°47' E 134°38'0 0.0
2018-Feb-17 05:00N 34°47' E 134°38'0 0.0
2018-Feb-17 04:30N 34°47' E 134°38'0 0.0
2018-Feb-17 04:00N 34°47' E 134°38'0 0.0
2018-Feb-17 03:29N 34°47' E 134°38'0 0.0
2018-Feb-17 03:00N 34°47' E 134°38'0 0.0
2018-Feb-17 02:30N 34°47' E 134°38'0 0.0
2018-Feb-17 01:57N 34°47' E 134°38'0 0.0
2018-Feb-17 01:30N 34°47' E 134°38'0 0.0
2018-Feb-17 00:59N 34°47' E 134°38'0 0.0
2018-Feb-17 00:30N 34°47' E 134°38'0 0.0
2018-Feb-17 00:00N 34°47' E 134°38'0 0.0
2018-Feb-16 23:30N 34°47' E 134°38'0 0.0
2018-Feb-16 23:00N 34°47' E 134°38'0 0.3
2018-Feb-16 22:30N 34°47' E 134°38'2 4.2
2018-Feb-16 22:00N 34°45' E 134°38'0 0.0
2018-Feb-16 21:30N 34°45' E 134°38'0 0.0
2018-Feb-16 20:54N 34°45' E 134°38'0 0.0
2018-Feb-16 20:24N 34°45' E 134°38'0 0.0
2018-Feb-16 20:00N 34°45' E 134°38'0 0.0
2018-Feb-16 19:30N 34°45' E 134°38'0 0.0
2018-Feb-16 19:00N 34°45' E 134°38'0 0.0
2018-Feb-16 18:30N 34°45' E 134°38'0 0.0
2018-Feb-16 18:00N 34°45' E 134°38'0 0.0
2018-Feb-16 17:30N 34°45' E 134°38'1 2.9
2018-Feb-16 17:00N 34°44' E 134°40'713.0
2018-Feb-16 16:30N 34°41' E 134°46'612.0
2018-Feb-16 16:00N 34°38' E 134°53'611.5
2018-Feb-16 15:30N 34°38' E 134°60'611.3
2018-Feb-16 15:00N 34°34' E 135°05'713.6
2018-Feb-16 14:30N 34°27' E 135°03'713.7
2018-Feb-16 14:01N 34°21' E 135°01'713.5
2018-Feb-16 13:30N 34°14' E 134°59'713.8
2018-Feb-16 13:00N 34°07' E 134°60'713.9
2018-Feb-16 12:30N 34°00' E 134°60'713.7
2018-Feb-16 12:00N 33°53' E 135°00'10610.0
2018-Feb-16 01:23N 34°36' E 136°58'713.9
2018-Feb-16 00:53N 34°40' E 137°05'514.2
2018-Feb-16 00:30N 34°42' E 137°11'4 5.3
2018-Feb-15 23:43N 34°42' E 137°16'0 0.0
2018-Feb-15 23:29N 34°42' E 137°16'14 7.0
2018-Feb-15 21:25N 34°33' E 137°02'613.6
2018-Feb-15 21:00N 34°33' E 137°09'4013.6
2018-Feb-15 18:05N 34°35' E 137°58'112.8
2018-Feb-15 17:58N 34°35' E 137°59'612.6
2018-Feb-15 17:30N 34°34' E 138°07'711.9
2018-Feb-15 16:56N 34°33' E 138°15'612.0
2018-Feb-15 16:27N 34°33' E 138°22'612.4
2018-Feb-15 15:59N 34°33' E 138°29'612.0
2018-Feb-15 15:30N 34°34' E 138°36'612.0
2018-Feb-15 14:58N 34°35' E 138°44'611.9
2018-Feb-15 14:29N 34°35' E 138°51'511.2
2018-Feb-15 14:00N 34°36' E 138°57'612.6
2018-Feb-15 13:30N 34°40' E 139°02'713.1
2018-Feb-15 12:59N 34°45' E 139°08'612.8
2018-Feb-15 12:30N 34°49' E 139°14'711.9
2018-Feb-15 11:57N 34°53' E 139°21'612.2
2018-Feb-15 11:29N 34°57' E 139°26'713.2
2018-Feb-15 10:57N 35°02' E 139°32'613.4
2018-Feb-15 10:31N 35°05' E 139°38'713.8
2018-Feb-15 10:01N 35°10' E 139°44'612.2
2018-Feb-15 09:31N 35°16' E 139°46'611.7
2018-Feb-15 09:01N 35°21' E 139°42'611.9
2018-Feb-15 08:30N 35°25' E 139°47'612.4
2018-Feb-15 08:00N 35°22' E 139°53'0 0.1
2018-Feb-15 07:30N 35°22' E 139°53'0 0.0
2018-Feb-15 07:00N 35°22' E 139°53'0 0.0
2018-Feb-15 06:30N 35°22' E 139°53'0 0.0
2018-Feb-15 06:00N 35°22' E 139°53'0 0.0
2018-Feb-15 05:30N 35°22' E 139°53'0 0.0
2018-Feb-15 04:58N 35°22' E 139°53'0 0.0
2018-Feb-15 04:30N 35°22' E 139°53'0 0.0
2018-Feb-15 04:00N 35°22' E 139°53'0 0.0
2018-Feb-15 03:30N 35°22' E 139°53'0 0.0
2018-Feb-15 03:00N 35°22' E 139°53'0 0.1
2018-Feb-15 02:30N 35°22' E 139°53'0 0.0
2018-Feb-15 02:00N 35°22' E 139°53'0 0.0
2018-Feb-15 01:18N 35°22' E 139°53'0 0.0
2018-Feb-15 00:57N 35°22' E 139°53'0 0.0
2018-Feb-15 00:30N 35°22' E 139°53'0 0.0
2018-Feb-14 23:57N 35°22' E 139°53'0 0.0
2018-Feb-14 23:27N 35°22' E 139°53'0 0.0
2018-Feb-14 22:55N 35°22' E 139°53'2 4.1
2018-Feb-14 22:30N 35°23' E 139°51'1 1.3
2018-Feb-14 21:59N 35°23' E 139°51'0 0.0
2018-Feb-14 21:29N 35°23' E 139°51'0 0.0
2018-Feb-14 20:56N 35°23' E 139°51'0 0.0
2018-Feb-14 20:29N 35°23' E 139°51'0 0.0
2018-Feb-14 19:59N 35°23' E 139°51'0 0.0
2018-Feb-14 19:29N 35°23' E 139°51'0 0.1
2018-Feb-14 18:59N 35°23' E 139°51'0 0.1
2018-Feb-14 18:29N 35°23' E 139°51'0 0.0
2018-Feb-14 18:00N 35°23' E 139°51'510.9
2018-Feb-14 17:31N 35°21' E 139°45'612.4
2018-Feb-14 17:00N 35°15' E 139°47'613.0
2018-Feb-14 16:30N 35°08' E 139°46'20 6.7
2018-Feb-14 13:32N 34°54' E 140°03'1 8.2
2018-Feb-14 13:28N 34°54' E 140°04'  
Track history (hours):
 
Tides and Currents Weather Stations Pressure Air Temp Water Temp Dewpoint Dewpoint Depression Visibility Wind Speed Wind Dir Waves Ship Positions

Keiyo Maru No.8

Last reported at 2018-Feb-23 15:30 UTC. Time now 2018-Feb-23 15:52 UTC.
Position N 33°56' E 130°54'.

Length 74 m; draft 4.5 m.

Type: Tanker. MMSI: 431005858.

Date/timePositionNaut miles runAvg speedWind from/ knotsBaromVisibWave heightAir tempDewpointWater temp
2018-Feb-23 15:30N 33°56' E 130°54'0 0.0
2018-Feb-23 15:00N 33°56' E 130°54'0 0.0
2018-Feb-23 14:30N 33°56' E 130°54'0 0.0
2018-Feb-23 14:00N 33°56' E 130°54'0 0.0
2018-Feb-23 13:30N 33°56' E 130°54'0 0.0
2018-Feb-23 13:00N 33°56' E 130°54'0 0.0
2018-Feb-23 12:27N 33°56' E 130°54'0 0.0
2018-Feb-23 12:00N 33°56' E 130°54'0 0.0
2018-Feb-23 11:27N 33°56' E 130°54'0 0.0
2018-Feb-23 11:00N 33°56' E 130°54'0 0.0
2018-Feb-23 10:30N 33°56' E 130°54'0 0.0
2018-Feb-23 10:00N 33°56' E 130°54'0 0.0
2018-Feb-23 09:30N 33°56' E 130°54'0 0.0
2018-Feb-23 08:57N 33°56' E 130°54'0 0.0
2018-Feb-23 08:27N 33°56' E 130°54'0 0.0
2018-Feb-23 08:00N 33°56' E 130°54'0 0.0
2018-Feb-23 07:22N 33°56' E 130°54'0 0.0
2018-Feb-23 07:00N 33°56' E 130°54'0 0.0
2018-Feb-23 06:30N 33°56' E 130°54'0 0.0
2018-Feb-23 05:55N 33°56' E 130°54'0 0.0
2018-Feb-23 05:30N 33°56' E 130°54'0 0.0
2018-Feb-23 05:00N 33°56' E 130°54'0 0.0
2018-Feb-23 04:30N 33°56' E 130°54'1 2.9
2018-Feb-23 04:01N 33°55' E 130°52'1 2.1
2018-Feb-23 03:30N 33°55' E 130°51'0 0.0
2018-Feb-23 03:00N 33°55' E 130°51'0 0.0
2018-Feb-23 02:30N 33°55' E 130°51'0 0.0
2018-Feb-23 02:00N 33°55' E 130°51'0 0.0
2018-Feb-23 01:30N 33°55' E 130°51'0 0.0
2018-Feb-23 01:00N 33°55' E 130°51'0 0.0
2018-Feb-23 00:30N 33°55' E 130°51'0 0.0
2018-Feb-23 00:01N 33°55' E 130°51'2 3.2
2018-Feb-22 23:30N 33°55' E 130°53'1 1.1
2018-Feb-22 23:00N 33°55' E 130°54'0 0.0
2018-Feb-22 22:31N 33°55' E 130°54'0 0.0
2018-Feb-22 22:00N 33°55' E 130°54'0 0.0
2018-Feb-22 21:30N 33°55' E 130°54'1 1.4
2018-Feb-22 21:00N 33°55' E 130°54'611.3
2018-Feb-22 20:30N 33°59' E 130°59'612.8
2018-Feb-22 20:00N 33°56' E 131°06'713.1
2018-Feb-22 19:30N 33°53' E 131°13'713.2
2018-Feb-22 19:00N 33°51' E 131°21'713.3
2018-Feb-22 18:30N 33°50' E 131°28'713.2
2018-Feb-22 18:00N 33°48' E 131°36'713.2
2018-Feb-22 17:30N 33°47' E 131°44'713.2
2018-Feb-22 16:59N 33°45' E 131°52'1613.1
2018-Feb-22 15:48N 33°43' E 132°10'413.0
2018-Feb-22 15:30N 33°44' E 132°15'712.9
2018-Feb-22 14:55N 33°46' E 132°23'1212.7
2018-Feb-22 14:00N 33°53' E 132°35'612.8
2018-Feb-22 13:30N 33°57' E 132°41'10512.2
2018-Feb-22 04:53N 34°44' E 134°35'410.3
2018-Feb-22 04:30N 34°47' E 134°38'0 0.0
2018-Feb-22 04:00N 34°47' E 134°38'0 0.0
2018-Feb-22 03:29N 34°47' E 134°38'0 0.0
2018-Feb-22 03:00N 34°47' E 134°38'0 0.0
2018-Feb-22 02:30N 34°47' E 134°38'2 3.6
2018-Feb-22 01:59N 34°45' E 134°38'0 0.3
2018-Feb-22 01:17N 34°45' E 134°38'0 0.0
2018-Feb-22 01:00N 34°45' E 134°38'2 3.2
2018-Feb-22 00:29N 34°43' E 134°38'612.9
2018-Feb-22 00:00N 34°37' E 134°37'611.3
2018-Feb-21 23:30N 34°32' E 134°38'510.5
2018-Feb-21 23:00N 34°26' E 134°38'510.6
2018-Feb-21 22:30N 34°21' E 134°38'710.7
2018-Feb-21 21:53N 34°14' E 134°39'512.5
2018-Feb-21 21:29N 34°10' E 134°42'613.0
2018-Feb-21 21:00N 34°05' E 134°46'713.3
2018-Feb-21 20:28N 33°59' E 134°51'613.2
2018-Feb-21 20:00N 33°54' E 134°56'713.1
2018-Feb-21 19:30N 33°50' E 135°01'8310.6
2018-Feb-21 11:41N 34°04' E 136°40'814.4
2018-Feb-21 11:09N 34°09' E 136°47'3310.7
2018-Feb-21 08:03N 34°42' E 136°49'213.2
2018-Feb-21 07:56N 34°43' E 136°48'613.1
2018-Feb-21 07:30N 34°48' E 136°45'713.4
2018-Feb-21 07:01N 34°55' E 136°46'613.0
2018-Feb-21 06:31N 35°01' E 136°50'2 3.7
2018-Feb-21 06:00N 35°02' E 136°52'0 0.0
2018-Feb-21 05:30N 35°02' E 136°52'0 0.0
2018-Feb-21 05:00N 35°02' E 136°52'0 0.0
2018-Feb-21 04:30N 35°02' E 136°52'0 0.0
2018-Feb-21 04:00N 35°02' E 136°52'0 0.0
2018-Feb-21 03:30N 35°02' E 136°52'0 0.0
2018-Feb-21 03:00N 35°02' E 136°52'0 0.0
2018-Feb-21 02:30N 35°02' E 136°52'0 0.0
2018-Feb-21 02:00N 35°02' E 136°52'0 0.0
2018-Feb-21 01:30N 35°02' E 136°52'0 0.0
2018-Feb-21 01:00N 35°02' E 136°52'0 0.0
2018-Feb-21 00:30N 35°02' E 136°52'2 3.1
2018-Feb-21 00:00N 35°03' E 136°52'1 2.1
2018-Feb-20 23:30N 35°04' E 136°52'0 0.0
2018-Feb-20 22:55N 35°04' E 136°52'0 0.0
2018-Feb-20 22:25N 35°04' E 136°52'0 0.0
2018-Feb-20 21:55N 35°04' E 136°52'0 0.0
2018-Feb-20 21:28N 35°04' E 136°52'0 0.0
2018-Feb-20 20:58N 35°04' E 136°52'0 0.0
2018-Feb-20 20:28N 35°04' E 136°52'0 0.0
2018-Feb-20 19:58N 35°04' E 136°52'0 0.0
2018-Feb-20 19:28N 35°04' E 136°52'0 0.0
2018-Feb-20 18:58N 35°04' E 136°52'0 0.0
2018-Feb-20 18:28N 35°04' E 136°52'0 0.0
2018-Feb-20 17:58N 35°04' E 136°52'0 0.0
2018-Feb-20 17:28N 35°04' E 136°52'0 0.0
2018-Feb-20 16:58N 35°04' E 136°52'0 0.0
2018-Feb-20 16:25N 35°04' E 136°52'0 0.0
2018-Feb-20 15:58N 35°04' E 136°52'0 0.0
2018-Feb-20 15:28N 35°04' E 136°52'0 0.0
2018-Feb-20 14:58N 35°04' E 136°52'0 0.0
2018-Feb-20 14:25N 35°04' E 136°52'0 0.0
2018-Feb-20 13:58N 35°04' E 136°52'0 0.0
2018-Feb-20 13:25N 35°04' E 136°52'0 0.0
2018-Feb-20 12:58N 35°04' E 136°52'0 0.0
2018-Feb-20 12:28N 35°04' E 136°52'0 0.0
2018-Feb-20 11:58N 35°04' E 136°52'0 0.0
2018-Feb-20 11:28N 35°04' E 136°52'0 0.0
2018-Feb-20 10:58N 35°04' E 136°52'0 0.0
2018-Feb-20 10:28N 35°04' E 136°52'0 0.0
2018-Feb-20 09:58N 35°04' E 136°52'0 0.0
2018-Feb-20 09:28N 35°04' E 136°52'0 0.0
2018-Feb-20 08:58N 35°04' E 136°52'0 0.0
2018-Feb-20 08:25N 35°04' E 136°52'0 0.0
2018-Feb-20 07:58N 35°04' E 136°52'0 0.0
2018-Feb-20 07:22N 35°04' E 136°52'0 0.3
2018-Feb-20 07:00N 35°04' E 136°52'5 9.2
2018-Feb-20 06:30N 35°00' E 136°50'713.1
2018-Feb-20 06:00N 34°54' E 136°47'713.3
2018-Feb-20 05:30N 34°47' E 136°48'713.1
2018-Feb-20 04:56N 34°42' E 136°54'613.3
2018-Feb-20 04:29N 34°39' E 137°00'714.4
2018-Feb-20 04:00N 34°42' E 137°08'612.5
2018-Feb-20 03:29N 34°42' E 137°16'4 0.4
2018-Feb-19 16:51N 34°42' E 137°11'11910.3
2018-Feb-19 05:20N 33°50' E 135°02'514.1
2018-Feb-19 04:58N 33°53' E 134°58'1114.2
2018-Feb-19 04:11N 34°02' E 134°49'314.1
2018-Feb-19 03:58N 34°04' E 134°47'914.5
2018-Feb-19 03:19N 34°12' E 134°40'514.7
2018-Feb-19 02:57N 34°17' E 134°38'614.2
2018-Feb-19 02:30N 34°23' E 134°36'714.0
2018-Feb-19 01:59N 34°31' E 134°36'714.1
2018-Feb-19 01:30N 34°37' E 134°37'913.8
2018-Feb-19 00:52N 34°46' E 134°38'1 2.7
2018-Feb-19 00:27N 34°47' E 134°38'0 0.0
2018-Feb-19 00:00N 34°47' E 134°38'0 0.0
2018-Feb-18 23:30N 34°47' E 134°38'0 0.1
2018-Feb-18 23:00N 34°47' E 134°38'4 8.9
2018-Feb-18 22:30N 34°44' E 134°34'714.0
2018-Feb-18 22:00N 34°41' E 134°26'713.8
2018-Feb-18 21:29N 34°37' E 134°19'1214.3
2018-Feb-18 20:39N 34°32' E 134°06'314.6
2018-Feb-18 20:26N 34°31' E 134°03'5812.8
2018-Feb-18 15:55N 34°09' E 132°57'1213.4
2018-Feb-18 15:01N 34°01' E 132°47'114.6
2018-Feb-18 14:56N 34°00' E 132°46'715.2
2018-Feb-18 14:29N 33°56' E 132°40'915.0
2018-Feb-18 13:55N 33°50' E 132°32'2814.0
2018-Feb-18 11:54N 33°43' E 131°59'513.7
2018-Feb-18 11:30N 33°44' E 131°53'713.4
2018-Feb-18 11:00N 33°45' E 131°45'612.9
2018-Feb-18 10:30N 33°46' E 131°38'713.3
2018-Feb-18 10:00N 33°48' E 131°30'713.5
2018-Feb-18 09:30N 33°49' E 131°22'713.4
2018-Feb-18 09:00N 33°51' E 131°14'713.4
2018-Feb-18 08:30N 33°54' E 131°07'713.9
2018-Feb-18 08:00N 33°58' E 131°01'714.0
2018-Feb-18 07:31N 33°54' E 130°54'2 4.4
2018-Feb-18 07:00N 33°55' E 130°51'0 0.0
2018-Feb-18 06:28N 33°55' E 130°51'0 0.0
2018-Feb-18 06:01N 33°55' E 130°51'0 0.0
2018-Feb-18 05:30N 33°55' E 130°51'0 0.0
2018-Feb-18 05:00N 33°55' E 130°51'0 0.0
2018-Feb-18 04:30N 33°55' E 130°51'0 0.0
2018-Feb-18 04:00N 33°55' E 130°51'0 0.0
2018-Feb-18 03:30N 33°55' E 130°51'0 0.0
2018-Feb-18 03:01N 33°55' E 130°51'0 0.0
2018-Feb-18 02:29N 33°55' E 130°51'0 0.1
2018-Feb-18 01:59N 33°55' E 130°51'0 0.0
2018-Feb-18 01:29N 33°55' E 130°51'2 4.0
2018-Feb-18 01:00N 33°55' E 130°53'510.6
2018-Feb-18 00:30N 33°58' E 130°58'713.4
2018-Feb-18 00:00N 33°56' E 131°06'510.6
2018-Feb-17 23:30N 33°53' E 131°11'510.0
2018-Feb-17 23:00N 33°51' E 131°17'612.4
2018-Feb-17 22:30N 33°50' E 131°24'612.4
2018-Feb-17 22:00N 33°49' E 131°32'612.7
2018-Feb-17 21:30N 33°48' E 131°39'612.4
2018-Feb-17 21:00N 33°46' E 131°46'2012.0
2018-Feb-17 19:18N 33°43' E 132°11'412.5
2018-Feb-17 18:59N 33°44' E 132°15'712.9
2018-Feb-17 18:25N 33°46' E 132°24'613.2
2018-Feb-17 17:59N 33°49' E 132°30'713.4
2018-Feb-17 17:29N 33°53' E 132°36'714.1
2018-Feb-17 17:00N 33°57' E 132°42'7411.3
2018-Feb-17 10:29N 34°27' E 134°03'712.9
2018-Feb-17 09:57N 34°25' E 134°12'612.3
2018-Feb-17 09:25N 34°24' E 134°19'712.0
2018-Feb-17 08:52N 34°29' E 134°25'2010.5
2018-Feb-17 07:00N 34°46' E 134°37'1 1.8
2018-Feb-17 06:15N 34°47' E 134°38'0 0.0
2018-Feb-17 06:00N 34°47' E 134°38'0 0.0
2018-Feb-17 05:30N 34°47' E 134°38'0 0.0
2018-Feb-17 05:00N 34°47' E 134°38'0 0.0
2018-Feb-17 04:30N 34°47' E 134°38'0 0.0
2018-Feb-17 04:00N 34°47' E 134°38'0 0.0
2018-Feb-17 03:29N 34°47' E 134°38'0 0.0
2018-Feb-17 03:00N 34°47' E 134°38'0 0.0
2018-Feb-17 02:30N 34°47' E 134°38'0 0.0
2018-Feb-17 01:57N 34°47' E 134°38'0 0.0
2018-Feb-17 01:30N 34°47' E 134°38'0 0.0
2018-Feb-17 00:59N 34°47' E 134°38'0 0.0
2018-Feb-17 00:30N 34°47' E 134°38'0 0.0
2018-Feb-17 00:00N 34°47' E 134°38'0 0.0
2018-Feb-16 23:30N 34°47' E 134°38'0 0.0
2018-Feb-16 23:00N 34°47' E 134°38'0 0.3
2018-Feb-16 22:30N 34°47' E 134°38'2 4.2
2018-Feb-16 22:00N 34°45' E 134°38'0 0.0
2018-Feb-16 21:30N 34°45' E 134°38'0 0.0
2018-Feb-16 20:54N 34°45' E 134°38'0 0.0
2018-Feb-16 20:24N 34°45' E 134°38'0 0.0
2018-Feb-16 20:00N 34°45' E 134°38'0 0.0
2018-Feb-16 19:30N 34°45' E 134°38'0 0.0
2018-Feb-16 19:00N 34°45' E 134°38'0 0.0
2018-Feb-16 18:30N 34°45' E 134°38'0 0.0
2018-Feb-16 18:00N 34°45' E 134°38'0 0.0
2018-Feb-16 17:30N 34°45' E 134°38'1 2.9
2018-Feb-16 17:00N 34°44' E 134°40'713.0
2018-Feb-16 16:30N 34°41' E 134°46'612.0
2018-Feb-16 16:00N 34°38' E 134°53'611.5
2018-Feb-16 15:30N 34°38' E 134°60'611.3
2018-Feb-16 15:00N 34°34' E 135°05'713.6
2018-Feb-16 14:30N 34°27' E 135°03'713.7
2018-Feb-16 14:01N 34°21' E 135°01'713.5
2018-Feb-16 13:30N 34°14' E 134°59'713.8
2018-Feb-16 13:00N 34°07' E 134°60'713.9
2018-Feb-16 12:30N 34°00' E 134°60'713.7
2018-Feb-16 12:00N 33°53' E 135°00'10610.0
2018-Feb-16 01:23N 34°36' E 136°58'713.9
2018-Feb-16 00:53N 34°40' E 137°05'514.2
2018-Feb-16 00:30N 34°42' E 137°11'4 5.3
2018-Feb-15 23:43N 34°42' E 137°16'0 0.0
2018-Feb-15 23:29N 34°42' E 137°16'14 7.0
2018-Feb-15 21:25N 34°33' E 137°02'613.6
2018-Feb-15 21:00N 34°33' E 137°09'4013.6
2018-Feb-15 18:05N 34°35' E 137°58'112.8
2018-Feb-15 17:58N 34°35' E 137°59'612.6
2018-Feb-15 17:30N 34°34' E 138°07'711.9
2018-Feb-15 16:56N 34°33' E 138°15'612.0
2018-Feb-15 16:27N 34°33' E 138°22'612.4
2018-Feb-15 15:59N 34°33' E 138°29'612.0
2018-Feb-15 15:30N 34°34' E 138°36'612.0
2018-Feb-15 14:58N 34°35' E 138°44'611.9
2018-Feb-15 14:29N 34°35' E 138°51'511.2
2018-Feb-15 14:00N 34°36' E 138°57'612.6
2018-Feb-15 13:30N 34°40' E 139°02'713.1
2018-Feb-15 12:59N 34°45' E 139°08'612.8
2018-Feb-15 12:30N 34°49' E 139°14'711.9
2018-Feb-15 11:57N 34°53' E 139°21'612.2
2018-Feb-15 11:29N 34°57' E 139°26'713.2
2018-Feb-15 10:57N 35°02' E 139°32'613.4
2018-Feb-15 10:31N 35°05' E 139°38'713.8
2018-Feb-15 10:01N 35°10' E 139°44'612.2
2018-Feb-15 09:31N 35°16' E 139°46'611.7
2018-Feb-15 09:01N 35°21' E 139°42'611.9
2018-Feb-15 08:30N 35°25' E 139°47'612.4
2018-Feb-15 08:00N 35°22' E 139°53'0 0.1
2018-Feb-15 07:30N 35°22' E 139°53'0 0.0
2018-Feb-15 07:00N 35°22' E 139°53'0 0.0
2018-Feb-15 06:30N 35°22' E 139°53'0 0.0
2018-Feb-15 06:00N 35°22' E 139°53'0 0.0
2018-Feb-15 05:30N 35°22' E 139°53'0 0.0
2018-Feb-15 04:58N 35°22' E 139°53'0 0.0
2018-Feb-15 04:30N 35°22' E 139°53'0 0.0
2018-Feb-15 04:00N 35°22' E 139°53'0 0.0
2018-Feb-15 03:30N 35°22' E 139°53'0 0.0
2018-Feb-15 03:00N 35°22' E 139°53'0 0.1
2018-Feb-15 02:30N 35°22' E 139°53'0 0.0
2018-Feb-15 02:00N 35°22' E 139°53'0 0.0
2018-Feb-15 01:18N 35°22' E 139°53'0 0.0
2018-Feb-15 00:57N 35°22' E 139°53'0 0.0
2018-Feb-15 00:30N 35°22' E 139°53'0 0.0
2018-Feb-14 23:57N 35°22' E 139°53'0 0.0
2018-Feb-14 23:27N 35°22' E 139°53'0 0.0
2018-Feb-14 22:55N 35°22' E 139°53'2 4.1
2018-Feb-14 22:30N 35°23' E 139°51'1 1.3
2018-Feb-14 21:59N 35°23' E 139°51'0 0.0
2018-Feb-14 21:29N 35°23' E 139°51'0 0.0
2018-Feb-14 20:56N 35°23' E 139°51'0 0.0
2018-Feb-14 20:29N 35°23' E 139°51'0 0.0
2018-Feb-14 19:59N 35°23' E 139°51'0 0.0
2018-Feb-14 19:29N 35°23' E 139°51'0 0.1
2018-Feb-14 18:59N 35°23' E 139°51'0 0.1
2018-Feb-14 18:29N 35°23' E 139°51'0 0.0
2018-Feb-14 18:00N 35°23' E 139°51'510.9
2018-Feb-14 17:31N 35°21' E 139°45'612.4
2018-Feb-14 17:00N 35°15' E 139°47'613.0
2018-Feb-14 16:30N 35°08' E 139°46'20 6.7
2018-Feb-14 13:32N 34°54' E 140°03'1 8.2
2018-Feb-14 13:28N 34°54' E 140°04'  

Dump ship's entire track history